ESNU

Umeå Airport

Umeå, Sweden
METAR ESNU 251520Z 23008KT CAVOK 11/04 Q1011
Observed Flight Rules
Sep-25 @ 15:20 UTC (28 minutes ago) Visual Flight Rules
Wind Visibility Clouds
230° at 8 knots 10,000+ meters
  • Clear skies
Temperatures Readings
Current 11°C / 52°F
Dewpoint 4°C / 39°F
Humidity 62%
Altimeter 29.85" Hg
Pressure 1011 hPa
Elevation 14
METAR ESNU 251520Z 23008KT CAVOK 11/04 Q1011
Observed Flight Rules
Sep-25 @ 15:20 UTC
(28 minutes ago)
VFR
Wind Visibility
230° at 8 knots 10,000+ meters
Clouds
  • Clear skies
Temperature Dewpoint
11°C / 52°F 4°C / 39°F
Humidity Altimeter Pressure
62% 29.85" Hg 1011 hPa